Time;durP1;ratioP1;P1;durP2;ratioP2;P2;SDS_P1;SDS_P2;PMS_P1;PMS_P2;Temp;Humidity;BMP_temperature;BMP_pressure;BME280_temperature;BME280_humidity;BME280_pressure;Samples;Min_cycle;Max_cycle;Signal;HPM_P1;HPM_P2
2023/01/03 00:01:33;;;;;;;9.00;4.00;;;;;;;;;;4902047;29;20056;-90
2023/01/03 00:04:00;;;;;;;10.70;4.10;;;;;;;;;;4887162;29;20048;-91
2023/01/03 00:06:27;;;;;;;10.95;3.58;;;;;;;;;;4902355;29;20074;-90
2023/01/03 00:08:54;;;;;;;6.28;3.17;;;;;;;;;;4902449;29;20056;-89
2023/01/03 00:14:06;;;;;;;4.38;3.30;;;;;;;;;;4901480;29;20052;-88
2023/01/03 00:16:32;;;;;;;10.13;3.97;;;;;;;;;;4885947;29;20060;-88
2023/01/03 00:18:58;;;;;;;7.57;2.95;;;;;;;;;;4886021;29;20102;-88
2023/01/03 00:21:24;;;;;;;6.15;3.13;;;;;;;;;;4885792;29;20060;-88
2023/01/03 00:23:50;;;;;;;10.48;2.67;;;;;;;;;;4886438;29;20088;-88
2023/01/03 00:26:17;;;;;;;5.75;3.10;;;;;;;;;;4870524;29;20050;-88
2023/01/03 00:28:43;;;;;;;6.80;2.75;;;;;;;;;;4870650;29;20056;-89
2023/01/03 00:31:10;;;;;;;9.98;3.13;;;;;;;;;;4901333;29;20060;-88
2023/01/03 00:33:40;;;;;;;4.90;2.67;;;;;;;;;;4885579;29;20055;-88
2023/01/03 00:36:07;;;;;;;5.68;3.03;;;;;;;;;;4901249;29;20052;-88
2023/01/03 00:38:34;;;;;;;5.28;2.83;;;;;;;;;;4901390;29;20535;-88
2023/01/03 00:41:17;;;;;;;5.07;2.83;;;;;;;;;;4884901;29;20119;-88
2023/01/03 00:43:43;;;;;;;9.25;2.85;;;;;;;;;;4885418;29;20048;-89
2023/01/03 00:46:10;;;;;;;5.70;2.50;;;;;;;;;;4886404;29;20525;-88
2023/01/03 00:48:37;;;;;;;13.85;2.70;;;;;;;;;;4885891;29;20058;-88
2023/01/03 00:51:06;;;;;;;25.10;4.50;;;;;;;;;;4885364;29;20052;-88
2023/01/03 00:53:32;;;;;;;4.63;2.78;;;;;;;;;;4901131;29;20048;-88
2023/01/03 00:56:09;;;;;;;6.78;2.53;;;;;;;;;;4885577;29;20457;-88
2023/01/03 00:58:35;;;;;;;5.43;2.20;;;;;;;;;;4885077;29;20056;-89
2023/01/03 01:01:06;;;;;;;3.42;2.35;;;;;;;;;;4884955;29;20056;-88
2023/01/03 01:03:32;;;;;;;3.45;2.20;;;;;;;;;;4885589;29;20048;-88
2023/01/03 01:05:58;;;;;;;5.35;2.90;;;;;;;;;;4885157;29;20497;-88
2023/01/03 01:08:24;;;;;;;13.23;3.58;;;;;;;;;;4869724;29;20048;-88
2023/01/03 01:11:02;;;;;;;4.82;2.25;;;;;;;;;;4885030;29;20052;-89
2023/01/03 01:13:29;;;;;;;9.63;2.45;;;;;;;;;;4885009;29;20493;-88
2023/01/03 01:15:55;;;;;;;6.82;2.47;;;;;;;;;;4884921;29;20052;-88
2023/01/03 01:18:21;;;;;;;10.52;2.28;;;;;;;;;;4885008;29;20140;-88
2023/01/03 01:20:47;;;;;;;6.13;2.28;;;;;;;;;;4885196;29;20402;-90
2023/01/03 01:23:13;;;;;;;5.15;1.95;;;;;;;;;;4869908;29;20501;-90
2023/01/03 01:25:39;;;;;;;8.27;2.55;;;;;;;;;;4870024;29;20413;-91
2023/01/03 01:28:05;;;;;;;13.48;2.42;;;;;;;;;;4869903;29;20425;-91
2023/01/03 01:30:31;;;;;;;12.35;2.50;;;;;;;;;;4885302;29;20135;-90
2023/01/03 01:32:57;;;;;;;9.23;2.75;;;;;;;;;;4885176;29;20060;-90
2023/01/03 01:35:23;;;;;;;10.88;2.60;;;;;;;;;;4869762;29;20063;-91
2023/01/03 01:37:49;;;;;;;10.02;2.67;;;;;;;;;;4900551;29;20500;-90
2023/01/03 01:40:15;;;;;;;5.30;2.22;;;;;;;;;;4885294;29;20628;-90
2023/01/03 01:45:26;;;;;;;10.23;3.08;;;;;;;;;;4900357;29;20199;-90
2023/01/03 01:48:01;;;;;;;3.92;2.30;;;;;;;;;;4885327;29;20048;-91
2023/01/03 01:50:36;;;;;;;5.05;2.78;;;;;;;;;;4885052;29;20134;-90
2023/01/03 01:53:11;;;;;;;6.60;2.25;;;;;;;;;;4884307;29;20056;-91
2023/01/03 01:55:42;;;;;;;7.00;2.28;;;;;;;;;;4884900;29;20084;-89
2023/01/03 01:58:09;;;;;;;5.80;2.33;;;;;;;;;;4884460;29;20040;-89
2023/01/03 02:00:35;;;;;;;4.95;2.88;;;;;;;;;;4884429;29;20063;-88
2023/01/03 02:03:02;;;;;;;5.03;2.83;;;;;;;;;;4884476;29;20134;-88
2023/01/03 02:05:28;;;;;;;7.85;2.65;;;;;;;;;;4868909;29;20143;-88
2023/01/03 02:07:55;;;;;;;4.80;2.90;;;;;;;;;;4884269;29;20059;-88
2023/01/03 02:10:25;;;;;;;9.80;3.78;;;;;;;;;;4884368;29;20151;-88
2023/01/03 02:13:05;;;;;;;5.63;1.95;;;;;;;;;;4884135;29;20044;-88
2023/01/03 02:15:53;;;;;;;4.38;2.47;;;4.80;99.90;;;;;;4884252;29;20063;-88
2023/01/03 02:18:37;;;;;;;6.32;2.53;;;;;;;;;;4884629;29;20048;-88
2023/01/03 02:21:24;;;;;;;6.80;3.05;;;;;;;;;;4884360;29;20146;-88
2023/01/03 02:23:56;;;;;;;4.78;2.80;;;;;;;;;;4884158;29;20063;-88
2023/01/03 02:26:22;;;;;;;7.75;2.50;;;;;;;;;;4884338;29;20048;-88
2023/01/03 02:28:58;;;;;;;3.53;2.70;;;;;;;;;;4900109;29;20056;-88
2023/01/03 02:31:28;;;;;;;5.15;2.78;;;;;;;;;;4900140;29;20052;-89
2023/01/03 02:33:59;;;;;;;5.22;2.60;;;;;;;;;;4884260;29;20409;-88
2023/01/03 02:36:28;;;;;;;16.05;3.38;;;;;;;;;;4884057;29;20060;-88
2023/01/03 02:39:00;;;;;;;2.70;2.42;;;;;;;;;;4899624;29;20060;-88
2023/01/03 02:41:33;;;;;;;7.57;2.83;;;;;;;;;;4883816;29;20048;-88
2023/01/03 02:44:13;;;;;;;13.68;2.47;;;;;;;;;;4884065;29;20048;-88
2023/01/03 02:46:46;;;;;;;12.00;3.13;;;;;;;;;;4883832;29;20048;-88
2023/01/03 02:49:38;;;;;;;10.57;3.05;;;;;;;;;;4899559;29;20087;-89
2023/01/03 02:52:06;;;;;;;3.78;3.33;;;;;;;;;;4881631;29;20505;-90
2023/01/03 02:54:41;;;;;;;7.05;2.75;;;;;;;;;;4884107;29;20398;-90
2023/01/03 02:57:10;;;;;;;8.70;2.70;;;;;;;;;;4884403;29;20548;-91
2023/01/03 02:59:38;;;;;;;8.80;3.53;;;;;;;;;;4883975;29;20056;-91
2023/01/03 03:02:04;;;;;;;3.42;2.53;;;;;;;;;;4884197;29;20505;-91
2023/01/03 03:04:33;;;;;;;7.18;3.35;;;;;;;;;;4885245;29;20059;-90
2023/01/03 03:07:18;;;;;;;6.65;2.67;;;;;;;;;;4887560;29;20052;-90
2023/01/03 03:15:16;;;;;;;7.93;2.60;;;;;;;;;;4903112;29;20048;-91
2023/01/03 03:17:43;;;;;;;6.32;3.15;;;;;;;;;;4887774;29;20056;-90
2023/01/03 03:25:58;;;;;;;7.32;3.13;;;;;;;;;;4902698;29;20510;-91
2023/01/03 03:28:35;;;;;;;10.32;3.63;;;;;;;;;;4887461;29;20489;-91
2023/01/03 03:31:04;;;;;;;11.48;3.03;;;;;;;;;;4902582;29;20084;-91
2023/01/03 03:33:33;;;;;;;9.05;3.13;;;;;;;;;;4887392;29;20055;-91
2023/01/03 03:36:07;;;;;;;9.43;3.20;;;;;;;;;;4886946;29;20505;-91
2023/01/03 03:38:35;;;;;;;5.82;2.80;;;;;;;;;;4887182;29;20520;-90
2023/01/03 03:44:59;;;;;;;4.90;2.75;;;;;;;;;;4903420;29;20211;-91
2023/01/03 03:46:55;;;;;;;4.80;2.90;;;;;;;;;;4902437;29;20395;-91
2023/01/03 03:49:38;;;;;;;9.75;2.60;;;;;;;;;;4887319;29;20044;-91
2023/01/03 03:52:06;;;;;;;5.90;3.00;;;;;;;;;;4887578;29;20056;-91
2023/01/03 03:54:33;;;;;;;3.72;2.53;;;;;;;;;;4886858;29;20048;-91
2023/01/03 03:57:03;;;;;;;6.53;2.70;;;;;;;;;;4886910;29;20187;-92
2023/01/03 03:59:30;;;;;;;7.50;2.78;;;;;;;;;;4886379;29;20127;-91
2023/01/03 04:01:57;;;;;;;9.15;3.03;;;;;;;;;;4886991;29;20048;-90
2023/01/03 04:04:26;;;;;;;5.85;3.13;;;;;;;;;;4886793;29;20052;-91
2023/01/03 04:06:53;;;;;;;6.35;3.45;;;;;;;;;;4886377;29;20044;-91
2023/01/03 04:09:19;;;;;;;7.65;3.25;;;;;;;;;;4871011;29;20536;-91
2023/01/03 04:11:45;;;;;;;6.53;3.47;;;;;;;;;;4886600;29;20387;-91
2023/01/03 04:14:11;;;;;;;7.60;3.22;;;;;;;;;;4886703;29;20055;-91
2023/01/03 04:16:39;;;;;;;12.23;4.82;;;;;;;;;;4885505;29;20064;-90
2023/01/03 04:19:05;;;;;;;6.82;2.80;;;;;;;;;;4886301;29;20068;-90
2023/01/03 04:21:31;;;;;;;8.23;3.67;;;;;;;;;;4870601;29;20504;-90
2023/01/03 04:23:57;;;;;;;8.20;3.20;;;;;;;;;;4870896;29;20060;-89
2023/01/03 04:26:23;;;;;;;5.20;2.85;;;;;;;;;;4870540;29;20056;-90
2023/01/03 04:28:49;;;;;;;8.75;3.20;;;;;;;;;;4870464;29;20056;-90
2023/01/03 04:31:16;;;;;;;11.82;3.53;;;;;;;;;;4870693;29;20059;-90
2023/01/03 04:33:42;;;;;;;6.32;3.00;;;;;;;;;;4870395;29;20048;-90
2023/01/03 04:36:08;;;;;;;7.55;3.65;;;;;;;;;;4870322;29;20119;-90
2023/01/03 04:38:34;;;;;;;5.10;2.92;;;;;;;;;;4885828;29;20094;-89
2023/01/03 04:41:05;;;;;;;7.25;3.22;;;;;;;;;;4885632;29;20059;-89
2023/01/03 04:46:15;;;;;;;5.45;3.42;;;;;;;;;;4888012;29;20135;-89
2023/01/03 04:48:41;;;;;;;10.45;3.83;;;;;;;;;;4870958;29;20435;-88
2023/01/03 04:51:07;;;;;;;6.38;3.15;;;;;;;;;;4885552;29;20055;-88
2023/01/03 04:53:33;;;;;;;10.80;3.10;;;;;;;;;;4885965;29;20142;-89
2023/01/03 04:55:59;;;;;;;7.53;3.50;;;;;;;;;;4870248;29;20056;-90
2023/01/03 04:58:26;;;;;;;5.50;3.63;;;;;;;;;;4869795;29;20067;-90
2023/01/03 05:00:52;;;;;;;8.68;3.40;;;;;;;;;;4885348;29;20118;-90
2023/01/03 05:03:18;;;;;;;4.25;3.22;;;;;;;;;;4870233;29;20485;-90
2023/01/03 05:05:44;;;;;;;4.85;3.88;;;;;;;;;;4886216;29;20416;-90
2023/01/03 05:08:11;;;;;;;5.60;3.63;;;;;;;;;;4885322;29;20056;-89
2023/01/03 05:10:37;;;;;;;6.93;3.40;;;;;;;;;;4900986;29;20111;-90
2023/01/03 05:13:04;;;;;;;7.75;4.15;;;;;;;;;;4885228;29;20080;-90
2023/01/03 05:15:31;;;;;;;4.45;3.22;;;;;;;;;;4870052;29;20052;-91
2023/01/03 05:17:57;;;;;;;10.55;4.18;;;;;;;;;;4885520;29;20404;-91
2023/01/03 05:25:58;;;;;;;8.40;5.55;;;;;;;;;;4901222;29;20062;-90
2023/01/03 05:28:24;;;;;;;7.72;5.05;;;;;;;;;;4869693;29;20060;-91
2023/01/03 05:30:50;;;;;;;10.75;5.40;;;;;;;;;;4885603;29;20486;-90
2023/01/03 05:33:18;;;;;;;9.60;4.95;;;;;;;;;;4885422;29;20461;-90
2023/01/03 05:35:46;;;;;;;10.65;4.85;;;;;;;;;;4871731;29;20469;-90
2023/01/03 05:38:12;;;;;;;6.10;4.72;;;;;;;;;;4886552;29;20497;-91
2023/01/03 05:40:43;;;;;;;10.02;5.00;;;;;;;;;;4886220;29;20055;-91
2023/01/03 05:43:10;;;;;;;10.55;5.50;;;;;;;;;;4886890;29;20131;-91
2023/01/03 05:45:37;;;;;;;11.80;5.40;;;;;;;;;;4886743;29;20557;-91
2023/01/03 05:48:03;;;;;;;12.10;6.05;;;;;;;;;;4885882;29;20051;-91
2023/01/03 05:50:29;;;;;;;11.77;7.60;;;;;;;;;;4886169;29;20114;-90
2023/01/03 05:52:56;;;;;;;9.75;6.50;;;;;;;;;;4885183;29;20497;-90
2023/01/03 05:55:22;;;;;;;11.90;6.82;;;;;;;;;;4885403;29;20063;-90
2023/01/03 05:57:48;;;;;;;10.93;6.50;;;;;;;;;;4885301;29;20051;-90
2023/01/03 06:00:15;;;;;;;14.35;7.13;;;;;;;;;;4885009;29;20394;-90
2023/01/03 06:02:41;;;;;;;12.10;7.63;;;;;;;;;;4885300;29;20135;-89
2023/01/03 06:05:07;;;;;;;11.48;7.47;;;;;;;;;;4885683;29;20509;-90
2023/01/03 06:07:36;;;;;;;15.30;8.77;;;;;;;;;;4902430;29;20052;-89
2023/01/03 06:10:02;;;;;;;16.80;9.07;;;;;;;;;;4887118;29;20455;-89
2023/01/03 06:12:29;;;;;;;22.27;11.75;;;;;;;;;;4886872;29;20100;-89
2023/01/03 06:14:55;;;;;;;16.17;10.13;;;;;;;;;;4887496;29;20115;-89
2023/01/03 06:20:07;;;;;;;21.85;9.90;;;;;;;;;;4901398;29;20048;-89
2023/01/03 06:22:33;;;;;;;14.60;9.38;;;;;;;;;;4901310;29;20052;-88
2023/01/03 06:24:59;;;;;;;16.98;9.32;;;;;;;;;;4885194;29;20445;-89
2023/01/03 06:27:25;;;;;;;17.88;9.90;;;;;;;;;;4870472;29;20048;-89
2023/01/03 06:29:51;;;;;;;16.60;9.88;;;;;;;;;;4885201;29;20513;-90
2023/01/03 06:32:18;;;;;;;17.52;9.75;;;;;;;;;;4885903;29;20063;-89
2023/01/03 06:34:44;;;;;;;14.85;9.43;;;;;;;;;;4900717;29;20048;-90
2023/01/03 06:37:10;;;;;;;17.13;9.48;;;;;;;;;;4870236;29;20052;-89
2023/01/03 06:39:37;;;;;;;16.23;10.35;;;;;;;;;;4886194;29;20059;-90
2023/01/03 06:53:13;;;;;;;18.52;10.38;;;;;;;;;;4903554;29;20052;-90
2023/01/03 06:55:40;;;;;;;17.58;11.50;;;;;;;;;;4888163;29;20052;-89
2023/01/03 06:58:06;;;;;;;22.08;12.35;;;;;;;;;;4904502;29;20564;-89
2023/01/03 07:00:35;;;;;;;20.73;12.63;;;;;;;;;;4888322;29;20091;-89
2023/01/03 07:03:02;;;;;;;22.92;12.43;;;;;;;;;;4888383;29;20103;-89
2023/01/03 07:05:28;;;;;;;22.98;12.55;;;;;;;;;;4872836;29;20044;-90
2023/01/03 07:07:54;;;;;;;21.00;13.15;;;;;;;;;;4888506;29;20044;-90
2023/01/03 07:10:20;;;;;;;22.00;11.82;;;;;;;;;;4872027;29;20048;-89
2023/01/03 07:15:31;;;;;;;25.52;13.50;;;;;;;;;;4889810;29;20091;-89
2023/01/03 07:17:57;;;;;;;33.67;13.98;;;;;;;;;;4887190;29;20067;-88
2023/01/03 07:20:23;;;;;;;18.73;13.02;;;;;;;;;;4902654;29;20067;-89
2023/01/03 07:22:49;;;;;;;21.85;12.90;;;;;;;;;;4887046;29;20079;-89
2023/01/03 07:25:15;;;;;;;23.58;12.57;;;;;;;;;;4902698;29;20142;-89
2023/01/03 07:27:41;;;;;;;23.17;13.63;;;;;;;;;;4887236;29;20501;-89
2023/01/03 07:30:08;;;;;;;24.83;14.52;;;;;;;;;;4871815;29;20433;-89
2023/01/03 07:32:34;;;;;;;20.70;13.40;;;;;;;;;;4886884;29;20518;-88
2023/01/03 07:35:01;;;;;;;26.58;13.38;;;;;;;;;;4872089;29;20534;-89
2023/01/03 07:37:27;;;;;;;31.00;14.38;;;;;;;;;;4887106;29;20063;-89
2023/01/03 07:39:53;;;;;;;27.65;14.80;;;;;;;;;;4902172;29;20063;-89
2023/01/03 07:45:04;;;;;;;30.20;17.17;;;;;;;;;;4889187;29;20191;-89
2023/01/03 07:47:30;;;;;;;29.27;15.77;;;;;;;;;;4872203;29;20142;-89
2023/01/03 07:49:56;;;;;;;27.95;15.70;;;;;;;;;;4871253;29;20048;-89
2023/01/03 07:52:22;;;;;;;27.52;14.50;;;;;;;;;;4870232;29;20051;-89
2023/01/03 07:54:48;;;;;;;26.83;14.73;;;;;;;;;;4886575;29;20059;-89
2023/01/03 07:57:14;;;;;;;31.48;14.90;;;;;;;;;;4886513;29;20051;-89
2023/01/03 07:59:40;;;;;;;24.60;15.45;;;;;;;;;;4886256;29;20060;-89
2023/01/03 08:02:06;;;;;;;25.23;15.82;;;;;;;;;;4871074;29;20060;-89
2023/01/03 08:04:32;;;;;;;28.75;16.15;;;;;;;;;;4886578;29;20131;-89
2023/01/03 08:06:58;;;;;;;23.92;14.73;;;;;;;;;;4886450;29;20067;-90
2023/01/03 08:14:54;;;;;;;26.25;14.35;;;;;;;;;;4902110;29;20054;-89
2023/01/03 08:17:20;;;;;;;30.80;15.20;;;;;;;;;;4870593;29;20111;-89
2023/01/03 08:19:46;;;;;;;23.25;13.77;;;;;;;;;;4870568;29;20120;-89
2023/01/03 08:22:12;;;;;;;29.20;14.30;;;;;;;;;;4886469;29;20056;-91
2023/01/03 08:24:39;;;;;;;25.25;14.07;;;;;;;;;;4871429;29;20060;-91
2023/01/03 08:27:05;;;;;;;22.85;14.80;;;;;;;;;;4870761;29;20505;-91
2023/01/03 08:29:31;;;;;;;25.33;12.90;;;;;;;;;;4886493;29;20404;-91
2023/01/03 08:31:58;;;;;;;20.67;12.98;;;;;;;;;;4886588;29;20413;-91
2023/01/03 08:34:26;;;;;;;24.95;13.45;;;;;;;;;;4886754;29;20417;-91
2023/01/03 08:36:56;;;;;;;27.05;14.23;;;;;;;;;;4901983;29;20092;-91
2023/01/03 08:39:25;;;;;;;22.40;12.88;;;;;;;;;;4886435;29;20394;-91
2023/01/03 08:41:53;;;;;;;26.52;12.15;;;;;;;;;;4885967;29;20560;-91
2023/01/03 08:44:38;;;;;;;23.65;12.75;;;;;;;;;;4886152;29;20051;-91
2023/01/03 08:47:06;;;;;;;23.67;12.98;;;;;;;;;;4886436;29;20052;-90
2023/01/03 08:49:32;;;;;;;19.85;12.98;;;;;;;;;;4885785;29;20135;-90
2023/01/03 08:51:58;;;;;;;23.10;12.45;;;;;;;;;;4901737;29;20052;-90
2023/01/03 08:54:24;;;;;;;24.45;12.40;;;;;;;;;;4870465;29;20501;-91
2023/01/03 08:56:50;;;;;;;24.83;13.60;;;;;;;;;;4886633;29;20064;-92
2023/01/03 08:59:16;;;;;;;24.45;13.23;;;;;;;;;;4869850;29;20060;-89
2023/01/03 09:01:42;;;;;;;24.55;13.65;;;;;;;;;;4869875;29;20056;-89
2023/01/03 09:04:08;;;;;;;23.33;13.55;;;;;;;;;;4869780;29;20055;-89
2023/01/03 09:06:34;;;;;;;27.48;13.68;;;;;;;;;;4870053;29;20120;-89
2023/01/03 09:09:04;;;;;;;16.73;12.52;;;;;;;;;;4870250;29;20056;-89
2023/01/03 09:11:30;;;;;;;24.30;13.75;;;;;;;;;;4885153;29;20193;-89
2023/01/03 09:13:56;;;;;;;24.80;14.40;;;;;;;;;;4869681;29;20070;-89
2023/01/03 09:16:22;;;;;;;21.50;13.20;;;;;;;;;;4885300;29;20056;-89
2023/01/03 09:18:48;;;;;;;18.52;10.98;;;;;;;;;;4885507;29;20150;-89
2023/01/03 09:21:14;;;;;;;20.27;12.15;;;;;;;;;;4884886;29;20058;-89
2023/01/03 09:23:40;;;;;;;20.23;12.45;;;;;;;;;;4885182;29;20134;-89
2023/01/03 09:26:08;;;;;;;22.27;12.52;;;;;;;;;;4869885;29;20497;-89
2023/01/03 09:28:34;;;;;;;22.27;13.70;;;;;;;;;;4900633;29;20107;-89
2023/01/03 09:31:00;;;;;;;35.78;15.30;;;;;;;;;;4885072;29;20075;-89
2023/01/03 09:33:26;;;;;;;28.73;15.48;;;;;;;;;;4884947;29;20091;-89
2023/01/03 09:35:55;;;;;;;43.33;16.92;;;;;;;;;;4869320;29;20056;-89
2023/01/03 09:38:22;;;;;;;73.22;15.32;;;;;;;;;;4884604;29;20048;-89
2023/01/03 09:40:55;;;;;;;91.82;17.52;;;;;;;;;;4899996;29;20052;-89
2023/01/03 09:43:22;;;;;;;85.20;17.30;;;;;;;;;;4884630;29;20087;-89
2023/01/03 09:45:50;;;;;;;43.20;12.48;;;;;;;;;;4884583;29;20059;-89
2023/01/03 09:48:17;;;;;;;29.48;11.13;;;;;;;;;;4900301;29;20066;-89
2023/01/03 09:50:45;;;;;;;58.65;13.57;;;;;;;;;;4884590;29;20056;-89
2023/01/03 10:05:13;;;;;;;34.67;14.13;;;;;;;;;;4899887;29;20048;-89
2023/01/03 10:07:54;;;;;;;63.88;14.38;;;;;;;;;;4828524;29;20099;-89
2023/01/03 10:10:41;;;;;;;129.98;19.20;;;;;;;;;;4828418;29;20046;-89
2023/01/03 10:13:16;;;;;;;87.60;15.60;;;;;;;;;;4868483;29;20063;-89
2023/01/03 10:15:48;;;;;;;75.93;17.23;;;;;;;;;;4887804;29;20398;-88
2023/01/03 10:18:42;;;;;;;91.43;17.83;;;2.30;99.90;;;;;;4888181;29;20094;-89
2023/01/03 10:21:11;;;;;;;100.97;19.37;;;;;;;;;;4888113;29;20139;-89
2023/01/03 10:23:37;;;;;;;130.02;21.85;;;;;;;;;;4888145;29;20508;-89
2023/01/03 10:26:08;;;;;;;62.38;16.77;;;;;;;;;;4872510;29;20528;-89
2023/01/03 10:28:37;;;;;;;83.82;18.25;;;;;;;;;;4888051;29;20544;-89
2023/01/03 10:31:09;;;;;;;94.03;18.90;;;;;;;;;;4887977;29;20063;-89
2023/01/03 10:33:38;;;;;;;98.10;19.90;;;;;;;;;;4888157;29;20048;-89
2023/01/03 10:36:04;;;;;;;133.77;23.85;;;;;;;;;;4888152;29;20063;-89
2023/01/03 10:38:31;;;;;;;102.40;21.02;;;;;;;;;;4887744;29;20546;-89
2023/01/03 10:40:59;;;;;;;112.38;20.30;;;;;;;;;;4872316;29;20100;-89
2023/01/03 10:43:29;;;;;;;49.47;18.10;;;;;;;;;;4887943;29;20119;-88
2023/01/03 10:46:00;;;;;;;97.90;25.15;;;;;;;;;;4887936;29;20452;-89
2023/01/03 10:48:34;;;;;;;93.70;23.80;;;;;;;;;;4888370;29;20476;-92
2023/01/03 10:51:03;;;;;;;52.38;20.60;;;;;;;;;;4888039;29;20055;-91
2023/01/03 10:53:29;;;;;;;34.60;16.92;;;;;;;;;;4888154;29;20055;-91
2023/01/03 10:56:02;;;;;;;41.80;19.98;;;;;;;;;;4873193;29;20096;-91
2023/01/03 10:58:28;;;;;;;49.37;19.87;;;;;;;;;;4887711;29;20048;-91
2023/01/03 11:01:09;;;;;;;51.03;23.65;;;;;;;;;;4887805;29;20052;-91
2023/01/03 11:03:38;;;;;;;50.22;22.98;;;;;;;;;;4887847;29;20056;-91
2023/01/03 11:06:05;;;;;;;61.30;24.20;;;;;;;;;;4887908;29;20044;-91
2023/01/03 11:08:54;;;;;;;56.55;24.58;;;;;;;;;;4903274;29;20493;-90
2023/01/03 11:11:31;;;;;;;54.22;23.58;;;;;;;;;;4887420;29;20048;-91
2023/01/03 11:14:07;;;;;;;51.22;24.42;;;;;;;;;;4903192;29;20064;-91
2023/01/03 11:16:33;;;;;;;45.35;21.88;;;;;;;;;;4887835;29;20059;-91
2023/01/03 11:19:00;;;;;;;55.92;24.05;;;;;;;;;;4903528;29;20040;-91
2023/01/03 11:21:35;;;;;;;50.33;22.80;;;;;;;;;;4887787;29;20494;-91
2023/01/03 11:24:04;;;;;;;46.53;23.30;;;;;;;;;;4887546;29;20059;-91
2023/01/03 11:26:50;;;;;;;52.13;23.85;;;3.80;99.90;;;;;;4902545;29;20060;-91
2023/01/03 11:29:32;;;;;;;46.78;23.15;;;;;;;;;;4887619;29;20058;-91
2023/01/03 11:32:11;;;;;;;44.00;23.55;;;;;;;;;;4902529;29;20052;-89
2023/01/03 11:34:37;;;;;;;47.00;22.33;;;;;;;;;;4886903;29;20045;-89
2023/01/03 11:37:06;;;;;;;48.30;24.00;;;;;;;;;;4886805;29;20509;-89
2023/01/03 11:39:50;;;;;;;50.60;21.35;;;;;;;;;;4886674;29;20080;-89
2023/01/03 11:42:33;;;;;;;;;;;4.10;99.90;;;;;;4887171;29;20119;-89
2023/01/03 11:45:17;;;;;;;49.00;23.23;;;4.20;99.90;;;;;;4887128;29;20329;-89
2023/01/03 11:47:43;;;;;;;48.13;25.05;;;;;;;;;;4886736;29;20412;-89
2023/01/03 11:50:09;;;;;;;65.65;29.38;;;;;;;;;;4902186;29;20056;-89
2023/01/03 11:52:42;;;;;;;57.22;27.08;;;;;;;;;;4886497;29;20060;-89
2023/01/03 11:55:14;;;;;;;57.38;27.48;;;;;;;;;;4886461;29;20480;-89
2023/01/03 11:58:01;;;;;;;61.17;26.00;;;;;;;;;;4886339;29;20513;-88
2023/01/03 12:00:36;;;;;;;50.00;26.02;;;;;;;;;;4886172;29;20115;-89
2023/01/03 12:03:16;;;;;;;52.05;26.10;;;;;;;;;;4886639;29;20059;-89
2023/01/03 12:05:44;;;;;;;50.90;26.95;;;;;;;;;;4902057;29;20044;-89
2023/01/03 12:08:21;;;;;;;52.85;26.75;;;;;;;;;;4886762;29;20453;-89
2023/01/03 12:10:51;;;;;;;54.42;27.65;;;;;;;;;;4901683;29;20347;-89
2023/01/03 12:13:17;;;;;;;69.45;30.38;;;;;;;;;;4886096;29;20052;-89
2023/01/03 12:15:46;;;;;;;72.43;30.73;;;;;;;;;;4886052;29;20131;-89
2023/01/03 12:18:20;;;;;;;66.80;33.05;;;;;;;;;;4886669;29;20055;-89
2023/01/03 12:20:51;;;;;;;55.78;28.20;;;;;;;;;;4886185;29;20052;-90
2023/01/03 12:23:41;;;;;;;63.53;30.38;;;5.10;99.90;;;;;;4886345;29;20111;-89
2023/01/03 12:26:09;;;;;;;51.58;25.17;;;;;;;;;;4901832;29;20056;-90
2023/01/03 12:28:39;;;;;;;53.03;26.55;;;;;;;;;;4886115;29;20087;-89
2023/01/03 12:31:08;;;;;;;57.85;27.20;;;;;;;;;;4886293;29;20071;-89
2023/01/03 12:33:39;;;;;;;64.65;28.58;;;;;;;;;;4901518;29;20052;-88
2023/01/03 12:36:22;;;;;;;73.63;34.10;;;;;;;;;;4886257;29;20492;-89
2023/01/03 12:38:59;;;;;;;52.97;26.88;;;;;;;;;;4885572;29;20531;-90
2023/01/03 12:41:30;;;;;;;54.70;28.02;;;;;;;;;;4885763;29;20052;-89
2023/01/03 12:44:14;;;;;;;58.35;28.10;;;;;;;;;;4885774;29;20055;-89
2023/01/03 12:46:43;;;;;;;58.55;26.73;;;;;;;;;;4901816;29;20139;-90
2023/01/03 12:49:11;;;;;;;49.60;25.92;;;;;;;;;;4885779;29;20118;-89
2023/01/03 12:51:40;;;;;;;56.15;26.63;;;;;;;;;;4885844;29;20048;-91
2023/01/03 12:54:18;;;;;;;53.88;27.05;;;;;;;;;;4886204;29;20063;-91
2023/01/03 12:57:00;;;;;;;50.90;24.98;;;;;;;;;;4901476;29;20379;-91
2023/01/03 12:59:35;;;;;;;41.78;21.70;;;;;;;;;;4885815;29;20106;-90
2023/01/03 13:02:23;;;;;;;38.38;22.08;;;5.60;99.90;;;;;;4901033;29;20044;-91
2023/01/03 13:04:51;;;;;;;42.90;24.67;;;;;;;;;;4885733;29;20470;-91
2023/01/03 13:07:28;;;;;;;45.42;24.05;;;;;;;;;;4886163;29;20070;-91
2023/01/03 13:10:06;;;;;;;42.95;22.73;;;;;;;;;;4885372;29;20060;-90
2023/01/03 13:12:34;;;;;;;45.35;21.77;;;;;;;;;;4885646;29;20048;-90
2023/01/03 13:15:04;;;;;;;37.00;18.17;;;;;;;;;;4885400;29;20063;-90
2023/01/03 13:17:31;;;;;;;42.85;21.05;;;;;;;;;;4885673;29;20142;-90
2023/01/03 13:20:16;;;;;;;40.85;22.15;;;;;;;;;;4900835;29;20052;-91
2023/01/03 13:22:45;;;;;;;28.70;17.38;;;;;;;;;;4885278;29;20059;-90
2023/01/03 13:25:30;;;;;;;36.53;19.02;;;;;;;;;;4885434;29;20059;-91
2023/01/03 13:27:57;;;;;;;34.65;18.38;;;;;;;;;;4885228;29;20052;-92
2023/01/03 13:30:25;;;;;;;33.05;18.25;;;;;;;;;;4885492;29;20048;-91
2023/01/03 13:32:51;;;;;;;37.22;18.60;;;;;;;;;;4900783;29;20048;-91
2023/01/03 13:35:36;;;;;;;32.85;18.02;;;;;;;;;;4885259;29;20104;-91
2023/01/03 13:38:20;;;;;;;27.75;15.93;;;;;;;;;;4900723;29;20056;-91
2023/01/03 13:40:50;;;;;;;25.25;14.77;;;;;;;;;;4885565;29;20159;-91
2023/01/03 13:43:27;;;;;;;34.90;17.70;;;;;;;;;;4885197;29;20468;-91
2023/01/03 13:45:55;;;;;;;37.75;16.38;;;;;;;;;;4885254;29;20051;-91
2023/01/03 13:48:26;;;;;;;34.17;15.63;;;;;;;;;;4884832;29;20107;-90
2023/01/03 13:51:13;;;;;;;29.92;15.10;;;;;;;;;;4884813;29;20060;-91
2023/01/03 13:53:51;;;;;;;31.42;16.20;;;;;;;;;;4900586;29;20059;-92
2023/01/03 13:56:17;;;;;;;26.83;14.30;;;;;;;;;;4885186;29;20056;-91
2023/01/03 13:58:44;;;;;;;28.13;15.38;;;;;;;;;;4884813;29;20067;-90
2023/01/03 14:01:34;;;;;;;25.58;14.63;;;;;;;;;;4900262;29;20509;-91
2023/01/03 14:04:08;;;;;;;29.55;14.80;;;;;;;;;;4874566;29;20044;-90
2023/01/03 14:06:36;;;;;;;;;;;6.70;99.90;;;;;;4900801;29;20144;-90
2023/01/03 14:09:18;;;;;;;25.67;13.85;;;;;;;;;;4900183;29;19930;-90
2023/01/03 14:11:47;;;;;;;36.08;14.88;;;;;;;;;;4884519;29;20143;-89
2023/01/03 14:14:14;;;;;;;26.42;15.13;;;;;;;;;;4900080;29;20390;-90
2023/01/03 14:16:59;;;;;;;32.55;16.85;;;;;;;;;;4900139;29;20059;-91
2023/01/03 14:19:29;;;;;;;33.63;18.15;;;;;;;;;;4884642;29;20469;-89
2023/01/03 14:21:58;;;;;;;30.33;16.33;;;;;;;;;;4900112;29;20056;-89
2023/01/03 14:24:26;;;;;;;28.20;15.15;;;;;;;;;;4884495;29;20087;-90
2023/01/03 14:26:52;;;;;;;23.83;13.45;;;;;;;;;;4884395;29;20054;-90
2023/01/03 14:29:20;;;;;;;32.53;15.27;;;;;;;;;;4868957;29;20070;-90
2023/01/03 14:31:47;;;;;;;33.38;15.43;;;;;;;;;;4884280;29;20139;-90
2023/01/03 14:34:17;;;;;;;26.42;13.70;;;;;;;;;;4884416;29;20060;-90
2023/01/03 14:36:45;;;;;;;29.38;16.50;;;;;;;;;;4884653;29;20048;-90
2023/01/03 14:39:19;;;;;;;32.17;15.98;;;;;;;;;;4884607;29;20824;-90
2023/01/03 14:41:46;;;;;;;27.10;15.98;;;;;;;;;;4884707;29;20146;-89
2023/01/03 14:44:12;;;;;;;27.85;15.95;;;;;;;;;;4899999;29;20052;-91
2023/01/03 14:46:41;;;;;;;37.28;18.58;;;;;;;;;;4884505;29;20060;-91
2023/01/03 14:49:18;;;;;;;32.70;16.77;;;;;;;;;;4884800;29;20517;-90
2023/01/03 14:51:44;;;;;;;33.67;15.57;;;;;;;;;;4884449;29;20064;-92
2023/01/03 14:54:13;;;;;;;33.78;16.30;;;;;;;;;;4885014;29;20056;-92
2023/01/03 14:56:39;;;;;;;38.88;17.10;;;;;;;;;;4884966;29;20147;-91
2023/01/03 14:59:08;;;;;;;24.52;14.05;;;;;;;;;;4869595;29;20056;-92
2023/01/03 15:01:35;;;;;;;26.20;16.58;;;;;;;;;;4886968;29;20099;-91
2023/01/03 15:04:02;;;;;;;29.90;15.40;;;;;;;;;;4903947;29;20106;-90
2023/01/03 15:06:29;;;;;;;34.67;16.60;;;;;;;;;;4872558;29;20520;-91
2023/01/03 15:08:56;;;;;;;30.90;16.25;;;;;;;;;;4887791;29;20051;-92
2023/01/03 15:11:54;;;;;;;29.85;15.50;;;;;;;;;;4888777;29;20138;-91
2023/01/03 15:14:22;;;;;;;24.00;14.57;;;;;;;;;;4888020;29;20056;-91
2023/01/03 15:16:49;;;;;;;28.98;16.10;;;;;;;;;;4903406;29;20079;-92
2023/01/03 15:19:21;;;;;;;33.80;16.13;;;;;;;;;;4902861;29;20542;-88
2023/01/03 15:21:47;;;;;;;31.83;15.60;;;;;;;;;;4887102;29;20056;-88
2023/01/03 15:24:16;;;;;;;32.47;17.33;;;;;;;;;;4887260;29;20532;-89
2023/01/03 15:26:45;;;;;;;22.40;14.10;;;;;;;;;;4887046;29;20052;-89
2023/01/03 15:29:19;;;;;;;28.13;15.13;;;;;;;;;;4887058;29;20580;-89
2023/01/03 15:31:47;;;;;;;29.13;16.02;;;;;;;;;;4902966;29;20048;-89
2023/01/03 15:34:15;;;;;;;30.60;16.23;;;;;;;;;;4886945;29;20048;-90
2023/01/03 15:36:41;;;;;;;27.50;16.42;;;;;;;;;;4902836;29;20131;-90
2023/01/03 15:39:09;;;;;;;30.13;15.70;;;;;;;;;;4887029;29;20052;-89
2023/01/03 15:44:24;;;;;;;27.08;13.40;;;;;;;;;;4902417;29;20087;-89
2023/01/03 15:46:50;;;;;;;25.70;15.15;;;;;;;;;;4886637;29;20056;-88